Погода Коренишецына 2 недели

Минская область, Белоруссия

26 мая-08 июня
  • 26мая
    Сегодня
    +11°
    +25°
    Небольшая облачность
    ВремяПогодаТемператураВлажностьДавлениеВетер, м/сВероятность осадков
    00:00Ясно и безоблачно+16°C66 %750 мм2.8 м/с2 %
    03:00Ясно и безоблачно+13°C66 %750 мм2.4 м/с2 %
    06:00Ясно и безоблачно+12°C73 %750 мм2.0 м/с2 %
    09:00Ясно и безоблачно+19°C53 %751 мм1.9 м/с2 %
    12:00Ясно и безоблачно+23°C31 %751 мм2.9 м/с2 %
    15:00Небольшая облачность+25°C30 %751 мм2.5 м/с2 %
    18:00Ясно и безоблачно+25°C31 %750 мм2.8 м/с2 %
    21:00Ясно и безоблачно+19°C55 %750 мм2.1 м/с2 %
  • 27мая
    Понедельник
    +12°
    +27°
    Небольшая облачность
    ВремяПогодаТемператураВлажностьДавлениеВетер, м/сВероятность осадков
    00:00Практически безоблачно+14°C70 %750 мм2.2 м/с2 %
    03:00Практически безоблачно+13°C73 %750 мм2.5 м/с2 %
    06:00Облачно с прояснениями+13°C64 %750 мм2.3 м/с2 %
    09:00Небольшая облачность+20°C53 %750 мм2.0 м/с2 %
    12:00Небольшая облачность+24°C36 %750 мм2.6 м/с2 %
    15:00Небольшая облачность+26°C37 %749 мм2.7 м/с1 %
    18:00Практически безоблачно+26°C41 %748 мм2.5 м/с9 %
    21:00Ясно и безоблачно+21°C62 %748 мм1.9 м/с5 %
  • 28мая
    Вторник
    +12°
    +24°
    Небольшая облачность
    ВремяПогодаТемператураВлажностьДавлениеВетер, м/сВероятность осадков
    00:00Ясно и безоблачно+16°C76 %748 мм2.4 м/с2 %
    03:00Ясно и безоблачно+14°C88 %748 мм2.1 м/с2 %
    06:00Ясно и безоблачно+14°C89 %747 мм1.9 м/с2 %
    09:00Ясно и безоблачно+21°C60 %748 мм2.1 м/с2 %
    12:00Облачно с прояснениями+23°C35 %747 мм3.5 м/с2 %
    15:00Небольшая облачность+24°C35 %747 мм3.6 м/с2 %
    18:00Ясно и безоблачно+24°C36 %745 мм3.2 м/с15 %
    21:00Облачно с прояснениями+20°C64 %745 мм4.2 м/с7 %
  • 29мая
    Среда
    +13°
    +26°
    Облачно с прояснениями
    ВремяПогодаТемператураВлажностьДавлениеВетер, м/сВероятность осадков
    00:00Небольшая облачность+17°C77 %745 мм3.1 м/с2 %
    03:00Ясно и безоблачно+14°C88 %744 мм2.4 м/с2 %
    06:00Ясно и безоблачно+13°C90 %744 мм2.6 м/с2 %
    09:00Практически безоблачно+21°C66 %744 мм3.0 м/с2 %
    12:00Небольшая облачность+24°C30 %743 мм3.7 м/с7 %
    15:00Облачно с прояснениями+25°C30 %743 мм3.9 м/с26 %
    18:00Ясно и безоблачно+25°C33 %742 мм3.1 м/с28 %
    21:00Практически безоблачно+21°C57 %741 мм1.4 м/с6 %
  • 30мая
    Четверг
    +13°
    +25°
    Облачно с прояснениями
    ВремяПогодаТемператураВлажностьДавлениеВетер, м/сВероятность осадков
    00:00Ясно и безоблачно+16°C61 %741 мм2.6 м/с4 %
    03:00Ясно и безоблачно+14°C81 %740 мм2.0 м/с2 %
    06:00Облачно с прояснениями+14°C72 %740 мм2.6 м/с2 %
    09:00Практически безоблачно+21°C52 %740 мм2.8 м/с2 %
    12:00Пасмурно, сплошная облачность+23°C45 %740 мм4.7 м/с12 %
    15:00Облачно с прояснениями+23°C49 %740 мм4.8 м/с39 %
    18:00Облачно с прояснениями+24°C47 %739 мм6.1 м/с49 %
    21:00Ясно и безоблачно+20°C68 %739 мм2.3 м/с10 %
Мы используем cookies
Соглашаюсь